sensor_id;sensor_type;location;lat;lon;timestamp;pressure;altitude;pressure_sealevel;temperature;humidity
75794;BME280;64418;47.536;19.074;2023-02-28T00:01:32;101413.53;;;-0.24;61.54
75794;BME280;64418;47.536;19.074;2023-02-28T00:04:18;101417.91;;;-0.23;61.83
75794;BME280;64418;47.536;19.074;2023-02-28T00:06:45;101410.97;;;-0.26;62.17
75794;BME280;64418;47.536;19.074;2023-02-28T00:09:11;101413.63;;;-0.26;62.17
75794;BME280;64418;47.536;19.074;2023-02-28T00:11:37;101420.66;;;-0.25;62.59
75794;BME280;64418;47.536;19.074;2023-02-28T00:14:02;101418.22;;;-0.28;62.41
75794;BME280;64418;47.536;19.074;2023-02-28T00:16:48;101424.84;;;-0.33;62.35
75794;BME280;64418;47.536;19.074;2023-02-28T00:19:14;101427.84;;;-0.38;62.48
75794;BME280;64418;47.536;19.074;2023-02-28T00:21:39;101442.34;;;-0.42;62.58
75794;BME280;64418;47.536;19.074;2023-02-28T00:24:27;101444.78;;;-0.39;62.63
75794;BME280;64418;47.536;19.074;2023-02-28T00:26:52;101443.06;;;-0.40;62.54
75794;BME280;64418;47.536;19.074;2023-02-28T00:29:18;101442.12;;;-0.39;62.41
75794;BME280;64418;47.536;19.074;2023-02-28T00:31:44;101446.59;;;-0.39;62.17
75794;BME280;64418;47.536;19.074;2023-02-28T00:34:09;101441.97;;;-0.37;62.03
75794;BME280;64418;47.536;19.074;2023-02-28T00:36:35;101445.19;;;-0.32;61.82
75794;BME280;64418;47.536;19.074;2023-02-28T00:39:01;101444.31;;;-0.33;61.78
75794;BME280;64418;47.536;19.074;2023-02-28T00:41:28;101443.59;;;-0.35;61.76
75794;BME280;64418;47.536;19.074;2023-02-28T00:43:54;101450.19;;;-0.28;61.78
75794;BME280;64418;47.536;19.074;2023-02-28T00:46:19;101448.69;;;-0.32;62.02
75794;BME280;64418;47.536;19.074;2023-02-28T00:48:45;101452.94;;;-0.29;62.15
75794;BME280;64418;47.536;19.074;2023-02-28T00:51:11;101459.34;;;-0.32;62.35
75794;BME280;64418;47.536;19.074;2023-02-28T00:53:37;101448.69;;;-0.32;62.46
75794;BME280;64418;47.536;19.074;2023-02-28T00:56:03;101452.09;;;-0.30;62.39
75794;BME280;64418;47.536;19.074;2023-02-28T00:58:30;101450.81;;;-0.24;62.13
75794;BME280;64418;47.536;19.074;2023-02-28T01:00:55;101456.97;;;-0.24;61.59
75794;BME280;64418;47.536;19.074;2023-02-28T01:03:22;101455.03;;;-0.22;61.46
75794;BME280;64418;47.536;19.074;2023-02-28T01:06:07;101450.56;;;-0.21;61.51
75794;BME280;64418;47.536;19.074;2023-02-28T01:08:33;101459.19;;;-0.18;61.48
75794;BME280;64418;47.536;19.074;2023-02-28T01:11:19;101456.31;;;-0.15;61.37
75794;BME280;64418;47.536;19.074;2023-02-28T01:13:46;101456.09;;;-0.12;61.35
75794;BME280;64418;47.536;19.074;2023-02-28T01:16:13;101457.78;;;-0.11;61.34
75794;BME280;64418;47.536;19.074;2023-02-28T01:18:39;101452.44;;;-0.11;60.68
75794;BME280;64418;47.536;19.074;2023-02-28T01:21:05;101452.44;;;-0.11;60.37
75794;BME280;64418;47.536;19.074;2023-02-28T01:23:32;101443.97;;;-0.16;60.16
75794;BME280;64418;47.536;19.074;2023-02-28T01:25:59;101452.97;;;-0.06;60.11
75794;BME280;64418;47.536;19.074;2023-02-28T01:28:28;101457.34;;;-0.05;60.57
75794;BME280;64418;47.536;19.074;2023-02-28T01:30:55;101460.13;;;-0.06;61.11
75794;BME280;64418;47.536;19.074;2023-02-28T01:33:21;101452.25;;;-0.08;61.92
75794;BME280;64418;47.536;19.074;2023-02-28T01:36:10;101457.59;;;-0.08;62.60
75794;BME280;64418;47.536;19.074;2023-02-28T01:38:56;101453.22;;;-0.09;63.07
75794;BME280;64418;47.536;19.074;2023-02-28T01:41:24;101459.25;;;-0.07;63.29
75794;BME280;64418;47.536;19.074;2023-02-28T01:43:56;101458.22;;;-0.04;63.37
75794;BME280;64418;47.536;19.074;2023-02-28T01:46:26;101452.97;;;-0.06;63.59
75794;BME280;64418;47.536;19.074;2023-02-28T01:48:54;101465.56;;;-0.08;63.75
75794;BME280;64418;47.536;19.074;2023-02-28T01:51:24;101460.87;;;-0.04;63.54
75794;BME280;64418;47.536;19.074;2023-02-28T01:53:55;101455.66;;;-0.06;62.54
75794;BME280;64418;47.536;19.074;2023-02-28T01:56:25;101455.66;;;-0.06;62.68
75794;BME280;64418;47.536;19.074;2023-02-28T01:58:54;101452.88;;;-0.04;62.92
75794;BME280;64418;47.536;19.074;2023-02-28T02:01:21;101454.78;;;-0.06;63.20
75794;BME280;64418;47.536;19.074;2023-02-28T02:03:49;101452.25;;;-0.08;63.60
75794;BME280;64418;47.536;19.074;2023-02-28T02:06:38;101448.59;;;-0.07;63.67
75794;BME280;64418;47.536;19.074;2023-02-28T02:09:04;101443.28;;;-0.07;64.19
75794;BME280;64418;47.536;19.074;2023-02-28T02:11:30;101450.41;;;-0.07;64.37
75794;BME280;64418;47.536;19.074;2023-02-28T02:14:09;101448.59;;;-0.07;64.53
75794;BME280;64418;47.536;19.074;2023-02-28T02:17:07;101449.47;;;-0.06;64.60
75794;BME280;64418;47.536;19.074;2023-02-28T02:25:53;101450.09;;;-0.03;64.15
75794;BME280;64418;47.536;19.074;2023-02-28T02:29:01;101448.91;;;0.02;63.67
75794;BME280;64418;47.536;19.074;2023-02-28T02:31:56;101441.88;;;0.00;63.46
75794;BME280;64418;47.536;19.074;2023-02-28T02:34:58;101438.00;;;0.05;63.25
75794;BME280;64418;47.536;19.074;2023-02-28T02:37:31;101449.41;;;0.07;63.21
75794;BME280;64418;47.536;19.074;2023-02-28T02:40:09;101446.84;;;0.05;63.08
75794;BME280;64418;47.536;19.074;2023-02-28T02:42:43;101438.00;;;0.05;62.96
75794;BME280;64418;47.536;19.074;2023-02-28T02:45:14;101444.31;;;0.04;62.88
75794;BME280;64418;47.536;19.074;2023-02-28T02:47:42;101444.09;;;0.07;63.46
75794;BME280;64418;47.536;19.074;2023-02-28T02:50:14;101449.66;;;0.04;63.62
75794;BME280;64418;47.536;19.074;2023-02-28T02:52:45;101453.75;;;0.08;63.50
75794;BME280;64418;47.536;19.074;2023-02-28T02:55:14;101447.47;;;0.09;63.30
75794;BME280;64418;47.536;19.074;2023-02-28T02:57:44;101459.84;;;0.10;63.33
75794;BME280;64418;47.536;19.074;2023-02-28T03:00:12;101450.91;;;0.11;63.21
75794;BME280;64418;47.536;19.074;2023-02-28T03:02:40;101455.47;;;0.09;63.14
75794;BME280;64418;47.536;19.074;2023-02-28T03:05:12;101454.53;;;0.10;62.90
75794;BME280;64418;47.536;19.074;2023-02-28T03:07:42;101453.03;;;0.06;62.89
75794;BME280;64418;47.536;19.074;2023-02-28T03:10:26;101453.75;;;0.08;62.91
75794;BME280;64418;47.536;19.074;2023-02-28T03:12:59;101451.09;;;0.08;62.94
75794;BME280;64418;47.536;19.074;2023-02-28T03:15:30;101454.53;;;0.10;63.11
75794;BME280;64418;47.536;19.074;2023-02-28T03:18:03;101458.13;;;0.09;63.39
75794;BME280;64418;47.536;19.074;2023-02-28T03:20:38;101462.75;;;0.07;63.51
75794;BME280;64418;47.536;19.074;2023-02-28T03:23:35;101461.75;;;0.08;63.50
75794;BME280;64418;47.536;19.074;2023-02-28T03:26:07;101462.50;;;0.10;63.48
75794;BME280;64418;47.536;19.074;2023-02-28T03:29:02;101465.19;;;0.10;63.52
75794;BME280;64418;47.536;19.074;2023-02-28T03:31:51;101458.13;;;0.09;63.35
75794;BME280;64418;47.536;19.074;2023-02-28T03:34:41;101456.44;;;0.08;63.25
75794;BME280;64418;47.536;19.074;2023-02-28T03:37:09;101458.91;;;0.11;63.05
75794;BME280;64418;47.536;19.074;2023-02-28T03:39:42;101457.09;;;0.11;63.29
75794;BME280;64418;47.536;19.074;2023-02-28T03:42:11;101466.88;;;0.11;63.31
75794;BME280;64418;47.536;19.074;2023-02-28T03:44:42;101457.91;;;0.12;62.65
75794;BME280;64418;47.536;19.074;2023-02-28T03:47:11;101455.03;;;0.15;62.51
75794;BME280;64418;47.536;19.074;2023-02-28T03:49:42;101454.53;;;0.10;62.17
75794;BME280;64418;47.536;19.074;2023-02-28T03:52:32;101462.19;;;0.14;61.56
75794;BME280;64418;47.536;19.074;2023-02-28T03:55:02;101456.00;;;0.14;61.21
75794;BME280;64418;47.536;19.074;2023-02-28T03:57:56;101458.75;;;0.12;61.42
75794;BME280;64418;47.536;19.074;2023-02-28T04:00:28;101464.94;;;0.13;60.80
75794;BME280;64418;47.536;19.074;2023-02-28T04:02:56;101460.47;;;0.13;60.25
75794;BME280;64418;47.536;19.074;2023-02-28T04:05:24;101461.09;;;0.17;59.76
75794;BME280;64418;47.536;19.074;2023-02-28T04:07:50;101460.37;;;0.15;59.59
75794;BME280;64418;47.536;19.074;2023-02-28T04:10:17;101463.75;;;0.17;59.35
75794;BME280;64418;47.536;19.074;2023-02-28T04:12:43;101460.22;;;0.16;59.40
75794;BME280;64418;47.536;19.074;2023-02-28T04:15:10;101456.94;;;0.13;59.42
75794;BME280;64418;47.536;19.074;2023-02-28T04:17:36;101461.19;;;0.15;59.40
75794;BME280;64418;47.536;19.074;2023-02-28T04:20:03;101451.38;;;0.16;59.31
75794;BME280;64418;47.536;19.074;2023-02-28T04:22:29;101451.19;;;0.19;59.22
75794;BME280;64418;47.536;19.074;2023-02-28T04:24:55;101454.91;;;0.16;58.43
75794;BME280;64418;47.536;19.074;2023-02-28T04:27:22;101452.38;;;0.15;57.88
75794;BME280;64418;47.536;19.074;2023-02-28T04:29:49;101454.28;;;0.13;57.90
75794;BME280;64418;47.536;19.074;2023-02-28T04:32:15;101445.34;;;0.14;57.85
75794;BME280;64418;47.536;19.074;2023-02-28T04:34:41;101447.03;;;0.15;57.84
75794;BME280;64418;47.536;19.074;2023-02-28T04:37:07;101442.44;;;0.17;57.86
75794;BME280;64418;47.536;19.074;2023-02-28T04:39:35;101445.00;;;0.18;57.72
75794;BME280;64418;47.536;19.074;2023-02-28T04:42:01;101446.81;;;0.18;57.63
75794;BME280;64418;47.536;19.074;2023-02-28T04:44:28;101448.72;;;0.16;57.75
75794;BME280;64418;47.536;19.074;2023-02-28T04:46:54;101441.47;;;0.18;57.57
75794;BME280;64418;47.536;19.074;2023-02-28T04:49:20;101448.53;;;0.19;57.57
75794;BME280;64418;47.536;19.074;2023-02-28T04:51:46;101442.34;;;0.18;57.59
75794;BME280;64418;47.536;19.074;2023-02-28T04:54:12;101441.25;;;0.21;57.69
75794;BME280;64418;47.536;19.074;2023-02-28T04:56:38;101431.06;;;0.15;57.79
75794;BME280;64418;47.536;19.074;2023-02-28T04:59:03;101441.25;;;0.21;57.78
75794;BME280;64418;47.536;19.074;2023-02-28T05:01:32;101444.88;;;0.20;57.75
75794;BME280;64418;47.536;19.074;2023-02-28T05:04:00;101444.88;;;0.20;57.79
75794;BME280;64418;47.536;19.074;2023-02-28T05:06:28;101442.34;;;0.18;57.78
75794;BME280;64418;47.536;19.074;2023-02-28T05:08:54;101442.97;;;0.22;57.69
75794;BME280;64418;47.536;19.074;2023-02-28T05:11:22;101446.34;;;0.24;57.84
75794;BME280;64418;47.536;19.074;2023-02-28T05:13:49;101442.72;;;0.25;57.81
75794;BME280;64418;47.536;19.074;2023-02-28T05:16:16;101442.72;;;0.25;57.74
75794;BME280;64418;47.536;19.074;2023-02-28T05:18:44;101447.19;;;0.24;57.87
75794;BME280;64418;47.536;19.074;2023-02-28T05:21:29;101450.19;;;0.20;58.15
75794;BME280;64418;47.536;19.074;2023-02-28T05:23:56;101438.53;;;0.10;58.10
75794;BME280;64418;47.536;19.074;2023-02-28T05:26:22;101455.53;;;0.20;57.82
75794;BME280;64418;47.536;19.074;2023-02-28T05:28:47;101436.81;;;0.09;57.70
75794;BME280;64418;47.536;19.074;2023-02-28T05:31:13;101460.75;;;0.21;58.03
75794;BME280;64418;47.536;19.074;2023-02-28T05:33:39;101453.63;;;0.22;58.16
75794;BME280;64418;47.536;19.074;2023-02-28T05:36:07;101460.63;;;0.23;58.33
75794;BME280;64418;47.536;19.074;2023-02-28T05:38:33;101467.03;;;0.20;58.17
75794;BME280;64418;47.536;19.074;2023-02-28T05:40:59;101465.47;;;0.18;57.96
75794;BME280;64418;47.536;19.074;2023-02-28T05:43:24;101465.34;;;0.19;57.82
75794;BME280;64418;47.536;19.074;2023-02-28T05:45:50;101471.50;;;0.20;58.00
75794;BME280;64418;47.536;19.074;2023-02-28T05:48:16;101468.63;;;0.23;57.88
75794;BME280;64418;47.536;19.074;2023-02-28T05:50:42;101465.75;;;0.26;57.58
75794;BME280;64418;47.536;19.074;2023-02-28T05:53:10;101469.12;;;0.28;57.64
75794;BME280;64418;47.536;19.074;2023-02-28T05:55:36;101468.81;;;0.32;57.32
75794;BME280;64418;47.536;19.074;2023-02-28T05:58:02;101478.38;;;0.35;57.08
75794;BME280;64418;47.536;19.074;2023-02-28T06:00:29;101479.84;;;0.39;56.86
75794;BME280;64418;47.536;19.074;2023-02-28T06:02:54;101479.00;;;0.38;56.27
75794;BME280;64418;47.536;19.074;2023-02-28T06:05:21;101476.94;;;0.42;56.21
75794;BME280;64418;47.536;19.074;2023-02-28T06:07:47;101481.84;;;0.48;56.25
75794;BME280;64418;47.536;19.074;2023-02-28T06:10:15;101485.97;;;0.52;56.07
75794;BME280;64418;47.536;19.074;2023-02-28T06:12:41;101484.56;;;0.59;55.82
75794;BME280;64418;47.536;19.074;2023-02-28T06:15:10;101477.41;;;0.60;55.71
75794;BME280;64418;47.536;19.074;2023-02-28T06:17:37;101495.97;;;0.72;55.44
75794;BME280;64418;47.536;19.074;2023-02-28T06:20:04;101483.16;;;0.77;55.50
75794;BME280;64418;47.536;19.074;2023-02-28T06:22:30;101483.88;;;0.79;55.42
75794;BME280;64418;47.536;19.074;2023-02-28T06:25:17;101480.00;;;0.83;55.43
75794;BME280;64418;47.536;19.074;2023-02-28T06:27:43;101496.53;;;0.88;55.37
75794;BME280;64418;47.536;19.074;2023-02-28T06:30:10;101496.91;;;0.95;55.26
75794;BME280;64418;47.536;19.074;2023-02-28T06:32:37;101490.72;;;0.94;55.19
75794;BME280;64418;47.536;19.074;2023-02-28T06:35:04;101491.97;;;1.02;55.42
75794;BME280;64418;47.536;19.074;2023-02-28T06:37:30;101500.44;;;1.07;55.46
75794;BME280;64418;47.536;19.074;2023-02-28T06:39:57;101490.28;;;1.12;55.24
75794;BME280;64418;47.536;19.074;2023-02-28T06:42:25;101493.56;;;1.15;54.72
75794;BME280;64418;47.536;19.074;2023-02-28T06:44:51;101492.25;;;1.21;54.64
75794;BME280;64418;47.536;19.074;2023-02-28T06:47:17;101495.13;;;1.29;54.21
75794;BME280;64418;47.536;19.074;2023-02-28T06:49:43;101496.59;;;1.33;53.86
75794;BME280;64418;47.536;19.074;2023-02-28T06:52:08;101497.34;;;1.46;53.74
75794;BME280;64418;47.536;19.074;2023-02-28T06:54:35;101506.22;;;1.58;53.66
75794;BME280;64418;47.536;19.074;2023-02-28T06:57:01;101501.00;;;1.67;53.33
75794;BME280;64418;47.536;19.074;2023-02-28T06:59:49;101505.63;;;1.76;52.83
75794;BME280;64418;47.536;19.074;2023-02-28T07:02:14;101499.78;;;1.82;52.41
75794;BME280;64418;47.536;19.074;2023-02-28T07:04:40;101498.81;;;1.72;52.16
75794;BME280;64418;47.536;19.074;2023-02-28T07:07:06;101497.94;;;1.94;51.09
75794;BME280;64418;47.536;19.074;2023-02-28T07:09:32;101507.97;;;2.24;50.61
75794;BME280;64418;47.536;19.074;2023-02-28T07:11:58;101503.88;;;2.52;50.11
75794;BME280;64418;47.536;19.074;2023-02-28T07:14:23;101502.53;;;2.46;49.67
75794;BME280;64418;47.536;19.074;2023-02-28T07:16:51;101513.03;;;3.02;48.96
75794;BME280;64418;47.536;19.074;2023-02-28T07:19:37;101514.84;;;3.22;47.82
75794;BME280;64418;47.536;19.074;2023-02-28T07:22:03;101518.88;;;3.37;47.51
75794;BME280;64418;47.536;19.074;2023-02-28T07:24:29;101521.34;;;3.29;47.75
75794;BME280;64418;47.536;19.074;2023-02-28T07:26:55;101530.44;;;3.37;46.49
75794;BME280;64418;47.536;19.074;2023-02-28T07:29:21;101526.91;;;3.58;46.11
75794;BME280;64418;47.536;19.074;2023-02-28T07:32:08;101531.22;;;3.79;46.21
75794;BME280;64418;47.536;19.074;2023-02-28T07:34:34;101527.38;;;4.12;45.78
75794;BME280;64418;47.536;19.074;2023-02-28T07:37:00;101521.91;;;4.14;44.78
75794;BME280;64418;47.536;19.074;2023-02-28T07:39:46;101523.78;;;4.23;44.12
75794;BME280;64418;47.536;19.074;2023-02-28T07:42:12;101526.81;;;4.09;44.47
75794;BME280;64418;47.536;19.074;2023-02-28T07:44:37;101530.78;;;4.14;44.57
75794;BME280;64418;47.536;19.074;2023-02-28T07:47:04;101530.12;;;4.22;44.21
75794;BME280;64418;47.536;19.074;2023-02-28T07:49:31;101535.09;;;4.36;44.42
75794;BME280;64418;47.536;19.074;2023-02-28T07:51:57;101532.47;;;4.06;44.50
75794;BME280;64418;47.536;19.074;2023-02-28T07:54:23;101528.81;;;3.76;45.84
75794;BME280;64418;47.536;19.074;2023-02-28T07:57:08;101532.97;;;3.60;46.05
75794;BME280;64418;47.536;19.074;2023-02-28T07:59:34;101536.03;;;3.85;45.60
75794;BME280;64418;47.536;19.074;2023-02-28T08:02:00;101536.69;;;3.68;45.63
75794;BME280;64418;47.536;19.074;2023-02-28T08:04:26;101531.63;;;3.75;45.76
75794;BME280;64418;47.536;19.074;2023-02-28T08:06:53;101531.22;;;3.79;45.42
75794;BME280;64418;47.536;19.074;2023-02-28T08:09:19;101528.53;;;4.19;44.51
75794;BME280;64418;47.536;19.074;2023-02-28T08:11:47;101532.88;;;4.79;42.87
75794;BME280;64418;47.536;19.074;2023-02-28T08:14:13;101530.31;;;4.87;42.91
75794;BME280;64418;47.536;19.074;2023-02-28T08:16:39;101532.00;;;4.50;43.15
75794;BME280;64418;47.536;19.074;2023-02-28T08:19:05;101531.22;;;5.54;41.70
75794;BME280;64418;47.536;19.074;2023-02-28T08:21:30;101527.00;;;6.25;39.80
75794;BME280;64418;47.536;19.074;2023-02-28T08:24:17;101531.38;;;6.71;38.79
75794;BME280;64418;47.536;19.074;2023-02-28T08:26:43;101532.84;;;7.01;37.16
75794;BME280;64418;47.536;19.074;2023-02-28T08:29:30;101534.38;;;7.47;35.99
75794;BME280;64418;47.536;19.074;2023-02-28T08:32:15;101531.25;;;9.58;32.66
75794;BME280;64418;47.536;19.074;2023-02-28T08:34:41;101535.13;;;9.63;31.43
75794;BME280;64418;47.536;19.074;2023-02-28T08:37:27;101528.69;;;10.28;30.25
75794;BME280;64418;47.536;19.074;2023-02-28T08:39:54;101508.97;;;10.95;30.28
75794;BME280;64418;47.536;19.074;2023-02-28T08:42:20;101530.84;;;10.71;30.46
75794;BME280;64418;47.536;19.074;2023-02-28T08:44:46;101526.06;;;10.42;30.51
75794;BME280;64418;47.536;19.074;2023-02-28T08:47:12;101534.13;;;10.58;29.90
75794;BME280;64418;47.536;19.074;2023-02-28T08:49:58;101529.03;;;11.09;29.58
75794;BME280;64418;47.536;19.074;2023-02-28T08:52:24;101539.81;;;13.29;26.68
75794;BME280;64418;47.536;19.074;2023-02-28T08:54:49;101541.28;;;12.53;26.93
75794;BME280;64418;47.536;19.074;2023-02-28T08:57:16;101537.00;;;13.22;26.49
75794;BME280;64418;47.536;19.074;2023-02-28T08:59:42;101538.87;;;13.43;26.95
75794;BME280;64418;47.536;19.074;2023-02-28T09:02:28;101535.16;;;13.08;26.19
75794;BME280;64418;47.536;19.074;2023-02-28T09:04:54;101527.72;;;14.82;24.66
75794;BME280;64418;47.536;19.074;2023-02-28T09:07:20;101530.03;;;12.77;25.96
75794;BME280;64418;47.536;19.074;2023-02-28T09:10:06;101521.31;;;12.31;27.26
75794;BME280;64418;47.536;19.074;2023-02-28T09:12:34;101529.81;;;12.07;28.06
75794;BME280;64418;47.536;19.074;2023-02-28T09:15:01;101531.56;;;13.22;25.90
75794;BME280;64418;47.536;19.074;2023-02-28T09:17:46;101528.50;;;11.51;28.49
75794;BME280;64418;47.536;19.074;2023-02-28T09:20:12;101528.41;;;11.96;28.42
75794;BME280;64418;47.536;19.074;2023-02-28T09:22:38;101531.91;;;12.77;27.16
75794;BME280;64418;47.536;19.074;2023-02-28T09:25:05;101528.50;;;10.37;30.07
75794;BME280;64418;47.536;19.074;2023-02-28T09:27:31;101524.34;;;9.31;32.40
75794;BME280;64418;47.536;19.074;2023-02-28T09:30:18;101524.16;;;8.18;34.34
75794;BME280;64418;47.536;19.074;2023-02-28T09:32:44;101528.25;;;7.19;36.18
75794;BME280;64418;47.536;19.074;2023-02-28T09:35:10;101526.91;;;6.97;36.80
75794;BME280;64418;47.536;19.074;2023-02-28T09:37:56;101531.75;;;6.76;37.66
75794;BME280;64418;47.536;19.074;2023-02-28T09:40:26;101536.28;;;6.58;38.10
75794;BME280;64418;47.536;19.074;2023-02-28T09:42:53;101534.19;;;6.07;39.18
75794;BME280;64418;47.536;19.074;2023-02-28T09:45:25;101538.34;;;6.46;38.90
75794;BME280;64418;47.536;19.074;2023-02-28T09:47:55;101531.53;;;6.87;38.23
75794;BME280;64418;47.536;19.074;2023-02-28T09:50:31;101532.56;;;7.30;37.42
75794;BME280;64418;47.536;19.074;2023-02-28T09:53:22;101528.84;;;7.05;37.49
75794;BME280;64418;47.536;19.074;2023-02-28T09:55:53;101530.66;;;7.99;36.40
75794;BME280;64418;47.536;19.074;2023-02-28T09:58:26;101528.06;;;7.90;36.57
75794;BME280;64418;47.536;19.074;2023-02-28T10:01:02;101529.66;;;8.34;35.91
75794;BME280;64418;47.536;19.074;2023-02-28T10:03:32;101518.63;;;7.94;35.96
75794;BME280;64418;47.536;19.074;2023-02-28T10:06:06;101517.34;;;7.46;36.40
75794;BME280;64418;47.536;19.074;2023-02-28T10:08:36;101519.56;;;7.77;36.02
75794;BME280;64418;47.536;19.074;2023-02-28T10:11:07;101515.59;;;7.89;36.40
75794;BME280;64418;47.536;19.074;2023-02-28T10:13:37;101516.78;;;7.94;36.14
75794;BME280;64418;47.536;19.074;2023-02-28T10:16:11;101515.53;;;7.81;36.52
75794;BME280;64418;47.536;19.074;2023-02-28T10:19:03;101517.00;;;6.98;37.67
75794;BME280;64418;47.536;19.074;2023-02-28T10:21:33;101523.34;;;9.24;34.92
75794;BME280;64418;47.536;19.074;2023-02-28T10:24:05;101518.63;;;11.21;31.35
75794;BME280;64418;47.536;19.074;2023-02-28T10:27:03;101515.47;;;11.98;29.69
75794;BME280;64418;47.536;19.074;2023-02-28T10:29:32;101516.50;;;12.12;28.92
75794;BME280;64418;47.536;19.074;2023-02-28T10:32:22;101516.25;;;11.55;28.95
75794;BME280;64418;47.536;19.074;2023-02-28T10:34:51;101503.09;;;11.29;29.77
75794;BME280;64418;47.536;19.074;2023-02-28T10:37:41;101512.09;;;12.11;28.92
75794;BME280;64418;47.536;19.074;2023-02-28T10:40:31;101501.47;;;11.57;29.88
75794;BME280;64418;47.536;19.074;2023-02-28T10:43:22;101502.56;;;13.29;27.39
75794;BME280;64418;47.536;19.074;2023-02-28T10:46:15;101490.31;;;12.62;28.63
75794;BME280;64418;47.536;19.074;2023-02-28T10:48:45;101490.13;;;11.39;29.37
75794;BME280;64418;47.536;19.074;2023-02-28T10:51:12;101496.78;;;11.51;29.30
75794;BME280;64418;47.536;19.074;2023-02-28T10:53:59;101495.66;;;10.86;30.86
75794;BME280;64418;47.536;19.074;2023-02-28T10:56:45;101484.37;;;10.12;32.08
75794;BME280;64418;47.536;19.074;2023-02-28T10:59:27;101474.34;;;11.87;28.95
75794;BME280;64418;47.536;19.074;2023-02-28T11:01:53;101476.53;;;10.65;31.00
75794;BME280;64418;47.536;19.074;2023-02-28T11:04:44;101474.50;;;8.03;35.42
75794;BME280;64418;47.536;19.074;2023-02-28T11:07:20;101472.72;;;7.52;36.61
75794;BME280;64418;47.536;19.074;2023-02-28T11:10:12;101472.19;;;7.74;36.83
75794;BME280;64418;47.536;19.074;2023-02-28T11:12:43;101475.69;;;7.66;37.13
75794;BME280;64418;47.536;19.074;2023-02-28T11:15:22;101467.75;;;8.07;36.39
75794;BME280;64418;47.536;19.074;2023-02-28T11:18:21;101475.69;;;8.75;35.71
75794;BME280;64418;47.536;19.074;2023-02-28T11:21:16;101472.69;;;9.02;35.49
75794;BME280;64418;47.536;19.074;2023-02-28T11:23:43;101478.06;;;8.69;36.51
75794;BME280;64418;47.536;19.074;2023-02-28T11:26:10;101466.59;;;8.84;36.28
75794;BME280;64418;47.536;19.074;2023-02-28T11:29:08;101476.03;;;9.12;36.23
75794;BME280;64418;47.536;19.074;2023-02-28T11:31:35;101471.91;;;9.48;35.52
75794;BME280;64418;47.536;19.074;2023-02-28T11:34:10;101471.53;;;9.67;35.16
75794;BME280;64418;47.536;19.074;2023-02-28T11:37:12;101464.88;;;9.15;36.40
75794;BME280;64418;47.536;19.074;2023-02-28T11:39:58;101459.75;;;9.44;35.94
75794;BME280;64418;47.536;19.074;2023-02-28T11:42:35;101463.69;;;9.26;35.98
75794;BME280;64418;47.536;19.074;2023-02-28T11:45:27;101457.94;;;7.98;38.26
75794;BME280;64418;47.536;19.074;2023-02-28T11:48:22;101460.50;;;8.49;37.67
75794;BME280;64418;47.536;19.074;2023-02-28T11:51:06;101463.03;;;8.75;37.23
75794;BME280;64418;47.536;19.074;2023-02-28T11:54:23;101458.50;;;8.84;36.95
75794;BME280;64418;47.536;19.074;2023-02-28T11:56:54;101456.81;;;8.16;38.12
75794;BME280;64418;47.536;19.074;2023-02-28T11:59:49;101445.94;;;7.50;39.59
75794;BME280;64418;47.536;19.074;2023-02-28T12:02:52;101445.75;;;7.86;38.85
75794;BME280;64418;47.536;19.074;2023-02-28T12:05:29;101449.50;;;7.93;38.80
75794;BME280;64418;47.536;19.074;2023-02-28T12:08:08;101444.63;;;8.70;37.78
75794;BME280;64418;47.536;19.074;2023-02-28T12:10:52;101446.97;;;8.65;38.01
75794;BME280;64418;47.536;19.074;2023-02-28T12:13:26;101436.97;;;9.39;36.88
75794;BME280;64418;47.536;19.074;2023-02-28T12:16:17;101439.31;;;9.42;36.14
75794;BME280;64418;47.536;19.074;2023-02-28T12:19:16;101436.13;;;9.38;36.29
75794;BME280;64418;47.536;19.074;2023-02-28T12:21:52;101435.41;;;9.52;35.84
75794;BME280;64418;47.536;19.074;2023-02-28T12:24:36;101427.03;;;9.23;36.50
75794;BME280;64418;47.536;19.074;2023-02-28T12:27:29;101425.56;;;9.59;35.53
75794;BME280;64418;47.536;19.074;2023-02-28T12:30:21;101427.25;;;10.38;34.82
75794;BME280;64418;47.536;19.074;2023-02-28T12:33:10;101419.38;;;9.43;35.76
75794;BME280;64418;47.536;19.074;2023-02-28T12:36:00;101413.34;;;9.16;36.51
75794;BME280;64418;47.536;19.074;2023-02-28T12:38:35;101413.16;;;9.26;36.67
75794;BME280;64418;47.536;19.074;2023-02-28T12:41:04;101409.06;;;9.46;36.32
75794;BME280;64418;47.536;19.074;2023-02-28T12:43:37;101418.34;;;10.52;34.40
75794;BME280;64418;47.536;19.074;2023-02-28T12:46:30;101406.09;;;10.79;33.79
75794;BME280;64418;47.536;19.074;2023-02-28T12:49:00;101404.88;;;11.48;32.97
75794;BME280;64418;47.536;19.074;2023-02-28T12:51:47;101409.41;;;11.85;32.10
75794;BME280;64418;47.536;19.074;2023-02-28T12:54:21;101410.66;;;12.04;32.82
75794;BME280;64418;47.536;19.074;2023-02-28T12:56:54;101397.03;;;11.24;33.52
75794;BME280;64418;47.536;19.074;2023-02-28T12:59:29;101403.19;;;9.82;35.41
75794;BME280;64418;47.536;19.074;2023-02-28T13:02:33;101399.97;;;11.00;34.62
75794;BME280;64418;47.536;19.074;2023-02-28T13:05:55;101400.25;;;11.05;34.36
75794;BME280;64418;47.536;19.074;2023-02-28T13:08:59;101393.22;;;10.05;36.20
75794;BME280;64418;47.536;19.074;2023-02-28T13:11:47;101391.66;;;10.10;36.40
75794;BME280;64418;47.536;19.074;2023-02-28T13:14:22;101383.91;;;10.38;36.00
75794;BME280;64418;47.536;19.074;2023-02-28T13:16:56;101389.50;;;9.28;37.73
75794;BME280;64418;47.536;19.074;2023-02-28T13:19:24;101390.78;;;9.48;37.73
75794;BME280;64418;47.536;19.074;2023-02-28T13:21:51;101391.69;;;9.33;38.62
75794;BME280;64418;47.536;19.074;2023-02-28T13:24:43;101385.59;;;9.39;39.01
75794;BME280;64418;47.536;19.074;2023-02-28T13:27:35;101378.75;;;9.04;39.04